sensor_id;sensor_type;location;lat;lon;timestamp;P1;durP1;ratioP1;P2;durP2;ratioP2
3066;SDS011;1544;48.834;9.194;2022-12-20T00:01:29;20.67;;;16.40;;
3066;SDS011;1544;48.834;9.194;2022-12-20T00:04:07;20.93;;;14.90;;
3066;SDS011;1544;48.834;9.194;2022-12-20T00:06:44;18.83;;;15.00;;
3066;SDS011;1544;48.834;9.194;2022-12-20T00:09:19;19.57;;;13.73;;
3066;SDS011;1544;48.834;9.194;2022-12-20T00:11:54;19.80;;;14.30;;
3066;SDS011;1544;48.834;9.194;2022-12-20T00:14:28;19.70;;;14.47;;
3066;SDS011;1544;48.834;9.194;2022-12-20T00:17:03;20.13;;;14.53;;
3066;SDS011;1544;48.834;9.194;2022-12-20T00:19:38;22.70;;;13.70;;
3066;SDS011;1544;48.834;9.194;2022-12-20T00:22:13;17.50;;;13.50;;
3066;SDS011;1544;48.834;9.194;2022-12-20T00:24:48;18.87;;;14.27;;
3066;SDS011;1544;48.834;9.194;2022-12-20T00:27:23;20.20;;;15.00;;
3066;SDS011;1544;48.834;9.194;2022-12-20T00:29:58;18.37;;;13.70;;
3066;SDS011;1544;48.834;9.194;2022-12-20T00:32:33;19.90;;;14.20;;
3066;SDS011;1544;48.834;9.194;2022-12-20T00:35:08;17.07;;;14.10;;
3066;SDS011;1544;48.834;9.194;2022-12-20T00:37:43;18.00;;;14.20;;
3066;SDS011;1544;48.834;9.194;2022-12-20T00:40:18;20.00;;;15.00;;
3066;SDS011;1544;48.834;9.194;2022-12-20T00:42:53;21.83;;;15.00;;
3066;SDS011;1544;48.834;9.194;2022-12-20T00:45:28;20.80;;;14.70;;
3066;SDS011;1544;48.834;9.194;2022-12-20T00:48:03;19.40;;;14.40;;
3066;SDS011;1544;48.834;9.194;2022-12-20T00:50:39;20.47;;;13.80;;
3066;SDS011;1544;48.834;9.194;2022-12-20T00:53:14;20.77;;;15.53;;
3066;SDS011;1544;48.834;9.194;2022-12-20T00:55:56;19.20;;;14.63;;
3066;SDS011;1544;48.834;9.194;2022-12-20T00:58:32;21.90;;;15.10;;
3066;SDS011;1544;48.834;9.194;2022-12-20T01:01:22;21.20;;;15.30;;
3066;SDS011;1544;48.834;9.194;2022-12-20T01:04:00;19.57;;;15.30;;
3066;SDS011;1544;48.834;9.194;2022-12-20T01:06:36;18.50;;;14.80;;
3066;SDS011;1544;48.834;9.194;2022-12-20T01:09:11;18.13;;;14.93;;
3066;SDS011;1544;48.834;9.194;2022-12-20T01:11:46;21.03;;;15.20;;
3066;SDS011;1544;48.834;9.194;2022-12-20T01:14:21;20.10;;;16.43;;
3066;SDS011;1544;48.834;9.194;2022-12-20T01:16:56;22.37;;;16.27;;
3066;SDS011;1544;48.834;9.194;2022-12-20T01:19:31;20.50;;;15.00;;
3066;SDS011;1544;48.834;9.194;2022-12-20T01:22:06;20.80;;;15.47;;
3066;SDS011;1544;48.834;9.194;2022-12-20T01:24:41;21.50;;;16.20;;
3066;SDS011;1544;48.834;9.194;2022-12-20T01:27:16;23.43;;;15.43;;
3066;SDS011;1544;48.834;9.194;2022-12-20T01:29:51;23.30;;;15.33;;
3066;SDS011;1544;48.834;9.194;2022-12-20T01:32:26;20.40;;;15.00;;
3066;SDS011;1544;48.834;9.194;2022-12-20T01:35:01;20.17;;;15.50;;
3066;SDS011;1544;48.834;9.194;2022-12-20T01:37:36;24.37;;;15.87;;
3066;SDS011;1544;48.834;9.194;2022-12-20T01:40:11;22.23;;;14.70;;
3066;SDS011;1544;48.834;9.194;2022-12-20T01:42:46;21.37;;;14.90;;
3066;SDS011;1544;48.834;9.194;2022-12-20T01:45:24;24.03;;;16.57;;
3066;SDS011;1544;48.834;9.194;2022-12-20T01:48:03;18.97;;;14.67;;
3066;SDS011;1544;48.834;9.194;2022-12-20T01:50:38;22.40;;;14.73;;
3066;SDS011;1544;48.834;9.194;2022-12-20T01:53:14;19.97;;;14.77;;
3066;SDS011;1544;48.834;9.194;2022-12-20T01:55:51;19.97;;;14.03;;
3066;SDS011;1544;48.834;9.194;2022-12-20T01:58:28;18.90;;;14.87;;
3066;SDS011;1544;48.834;9.194;2022-12-20T02:01:04;19.90;;;14.90;;
3066;SDS011;1544;48.834;9.194;2022-12-20T02:03:40;22.13;;;15.37;;
3066;SDS011;1544;48.834;9.194;2022-12-20T02:06:21;21.80;;;14.43;;
3066;SDS011;1544;48.834;9.194;2022-12-20T02:08:59;21.20;;;15.50;;
3066;SDS011;1544;48.834;9.194;2022-12-20T02:30:15;21.70;;;14.60;;
3066;SDS011;1544;48.834;9.194;2022-12-20T02:32:59;20.80;;;15.10;;
3066;SDS011;1544;48.834;9.194;2022-12-20T02:35:41;15.20;;;12.73;;
3066;SDS011;1544;48.834;9.194;2022-12-20T02:38:29;18.63;;;14.87;;
3066;SDS011;1544;48.834;9.194;2022-12-20T02:41:25;17.57;;;13.40;;
3066;SDS011;1544;48.834;9.194;2022-12-20T02:44:13;17.73;;;13.60;;
3066;SDS011;1544;48.834;9.194;2022-12-20T02:47:11;16.30;;;13.60;;
3066;SDS011;1544;48.834;9.194;2022-12-20T02:49:52;16.20;;;12.80;;
3066;SDS011;1544;48.834;9.194;2022-12-20T02:52:30;20.37;;;14.97;;
3066;SDS011;1544;48.834;9.194;2022-12-20T02:55:06;18.77;;;13.27;;
3066;SDS011;1544;48.834;9.194;2022-12-20T03:01:09;17.50;;;12.53;;
3066;SDS011;1544;48.834;9.194;2022-12-20T03:03:52;18.93;;;13.77;;
3066;SDS011;1544;48.834;9.194;2022-12-20T03:06:28;17.53;;;13.93;;
3066;SDS011;1544;48.834;9.194;2022-12-20T03:09:07;19.50;;;13.90;;
3066;SDS011;1544;48.834;9.194;2022-12-20T03:11:43;19.70;;;13.43;;
3066;SDS011;1544;48.834;9.194;2022-12-20T03:14:18;18.80;;;13.83;;
3066;SDS011;1544;48.834;9.194;2022-12-20T03:16:55;15.87;;;12.30;;
3066;SDS011;1544;48.834;9.194;2022-12-20T03:19:32;20.10;;;14.00;;
3066;SDS011;1544;48.834;9.194;2022-12-20T03:22:07;20.70;;;14.23;;
3066;SDS011;1544;48.834;9.194;2022-12-20T03:24:42;13.17;;;11.10;;
3066;SDS011;1544;48.834;9.194;2022-12-20T03:27:20;18.53;;;12.37;;
3066;SDS011;1544;48.834;9.194;2022-12-20T03:29:55;14.93;;;12.47;;
3066;SDS011;1544;48.834;9.194;2022-12-20T03:32:30;17.67;;;13.50;;
3066;SDS011;1544;48.834;9.194;2022-12-20T03:35:05;17.20;;;12.63;;
3066;SDS011;1544;48.834;9.194;2022-12-20T03:37:44;18.33;;;12.70;;
3066;SDS011;1544;48.834;9.194;2022-12-20T03:40:20;17.50;;;14.00;;
3066;SDS011;1544;48.834;9.194;2022-12-20T03:42:56;19.40;;;13.60;;
3066;SDS011;1544;48.834;9.194;2022-12-20T03:45:31;20.90;;;14.37;;
3066;SDS011;1544;48.834;9.194;2022-12-20T03:48:06;17.77;;;13.10;;
3066;SDS011;1544;48.834;9.194;2022-12-20T03:50:41;17.40;;;12.73;;
3066;SDS011;1544;48.834;9.194;2022-12-20T03:53:16;18.70;;;13.73;;
3066;SDS011;1544;48.834;9.194;2022-12-20T03:55:51;19.53;;;14.47;;
3066;SDS011;1544;48.834;9.194;2022-12-20T03:58:26;19.40;;;13.27;;
3066;SDS011;1544;48.834;9.194;2022-12-20T04:01:01;18.47;;;13.37;;
3066;SDS011;1544;48.834;9.194;2022-12-20T04:03:50;19.67;;;13.27;;
3066;SDS011;1544;48.834;9.194;2022-12-20T04:06:25;19.70;;;13.80;;
3066;SDS011;1544;48.834;9.194;2022-12-20T04:09:00;19.80;;;14.47;;
3066;SDS011;1544;48.834;9.194;2022-12-20T04:11:41;17.67;;;13.60;;
3066;SDS011;1544;48.834;9.194;2022-12-20T04:14:19;19.70;;;13.67;;
3066;SDS011;1544;48.834;9.194;2022-12-20T04:16:55;18.73;;;14.57;;
3066;SDS011;1544;48.834;9.194;2022-12-20T04:19:30;19.70;;;14.00;;
3066;SDS011;1544;48.834;9.194;2022-12-20T04:22:06;18.10;;;13.93;;
3066;SDS011;1544;48.834;9.194;2022-12-20T04:24:53;17.73;;;12.47;;
3066;SDS011;1544;48.834;9.194;2022-12-20T04:27:30;21.03;;;14.13;;
3066;SDS011;1544;48.834;9.194;2022-12-20T04:30:07;19.60;;;13.30;;
3066;SDS011;1544;48.834;9.194;2022-12-20T04:32:43;18.93;;;13.50;;
3066;SDS011;1544;48.834;9.194;2022-12-20T04:35:18;18.60;;;13.20;;
3066;SDS011;1544;48.834;9.194;2022-12-20T04:37:54;16.40;;;12.30;;
3066;SDS011;1544;48.834;9.194;2022-12-20T04:40:29;17.50;;;12.77;;
3066;SDS011;1544;48.834;9.194;2022-12-20T04:43:06;16.27;;;12.00;;
3066;SDS011;1544;48.834;9.194;2022-12-20T04:45:41;16.93;;;13.53;;
3066;SDS011;1544;48.834;9.194;2022-12-20T04:48:18;17.60;;;12.60;;
3066;SDS011;1544;48.834;9.194;2022-12-20T04:51:14;19.60;;;12.13;;
3066;SDS011;1544;48.834;9.194;2022-12-20T04:53:50;16.93;;;13.40;;
3066;SDS011;1544;48.834;9.194;2022-12-20T04:56:33;16.40;;;12.70;;
3066;SDS011;1544;48.834;9.194;2022-12-20T04:59:15;15.80;;;12.10;;
3066;SDS011;1544;48.834;9.194;2022-12-20T05:01:52;17.93;;;13.20;;
3066;SDS011;1544;48.834;9.194;2022-12-20T05:04:47;20.30;;;13.17;;
3066;SDS011;1544;48.834;9.194;2022-12-20T05:07:23;20.07;;;12.40;;
3066;SDS011;1544;48.834;9.194;2022-12-20T05:10:00;19.90;;;12.80;;
3066;SDS011;1544;48.834;9.194;2022-12-20T05:12:36;17.30;;;12.90;;
3066;SDS011;1544;48.834;9.194;2022-12-20T05:15:11;17.57;;;11.67;;
3066;SDS011;1544;48.834;9.194;2022-12-20T05:17:47;16.97;;;12.20;;
3066;SDS011;1544;48.834;9.194;2022-12-20T05:20:22;14.80;;;11.60;;
3066;SDS011;1544;48.834;9.194;2022-12-20T05:22:57;19.53;;;11.50;;
3066;SDS011;1544;48.834;9.194;2022-12-20T05:25:54;19.30;;;12.63;;
3066;SDS011;1544;48.834;9.194;2022-12-20T05:28:48;16.03;;;11.60;;
3066;SDS011;1544;48.834;9.194;2022-12-20T05:31:24;17.30;;;11.90;;
3066;SDS011;1544;48.834;9.194;2022-12-20T05:33:59;17.57;;;12.07;;
3066;SDS011;1544;48.834;9.194;2022-12-20T05:36:37;15.63;;;12.90;;
3066;SDS011;1544;48.834;9.194;2022-12-20T05:39:14;16.53;;;11.47;;
3066;SDS011;1544;48.834;9.194;2022-12-20T05:41:51;15.10;;;11.60;;
3066;SDS011;1544;48.834;9.194;2022-12-20T05:44:30;12.50;;;10.07;;
3066;SDS011;1544;48.834;9.194;2022-12-20T05:47:06;14.13;;;11.10;;
3066;SDS011;1544;48.834;9.194;2022-12-20T05:49:43;13.50;;;10.43;;
3066;SDS011;1544;48.834;9.194;2022-12-20T05:52:18;12.73;;;10.50;;
3066;SDS011;1544;48.834;9.194;2022-12-20T05:54:53;19.37;;;12.17;;
3066;SDS011;1544;48.834;9.194;2022-12-20T05:57:31;15.23;;;10.80;;
3066;SDS011;1544;48.834;9.194;2022-12-20T06:00:10;18.00;;;11.70;;
3066;SDS011;1544;48.834;9.194;2022-12-20T06:02:50;15.27;;;11.60;;
3066;SDS011;1544;48.834;9.194;2022-12-20T06:05:25;14.00;;;11.00;;
3066;SDS011;1544;48.834;9.194;2022-12-20T06:08:01;14.80;;;11.30;;
3066;SDS011;1544;48.834;9.194;2022-12-20T06:10:38;15.67;;;10.93;;
3066;SDS011;1544;48.834;9.194;2022-12-20T06:13:16;17.73;;;11.63;;
3066;SDS011;1544;48.834;9.194;2022-12-20T06:15:51;12.37;;;10.80;;
3066;SDS011;1544;48.834;9.194;2022-12-20T06:18:27;18.23;;;10.80;;
3066;SDS011;1544;48.834;9.194;2022-12-20T06:21:07;15.50;;;10.40;;
3066;SDS011;1544;48.834;9.194;2022-12-20T06:23:42;12.50;;;9.70;;
3066;SDS011;1544;48.834;9.194;2022-12-20T06:26:20;13.13;;;9.77;;
3066;SDS011;1544;48.834;9.194;2022-12-20T06:28:56;11.37;;;9.37;;
3066;SDS011;1544;48.834;9.194;2022-12-20T06:31:46;12.17;;;9.80;;
3066;SDS011;1544;48.834;9.194;2022-12-20T06:34:21;11.83;;;9.00;;
3066;SDS011;1544;48.834;9.194;2022-12-20T06:36:57;12.90;;;9.77;;
3066;SDS011;1544;48.834;9.194;2022-12-20T06:39:36;12.07;;;9.90;;
3066;SDS011;1544;48.834;9.194;2022-12-20T06:42:14;15.07;;;9.30;;
3066;SDS011;1544;48.834;9.194;2022-12-20T06:44:52;12.93;;;9.43;;
3066;SDS011;1544;48.834;9.194;2022-12-20T06:47:27;10.87;;;9.20;;
3066;SDS011;1544;48.834;9.194;2022-12-20T06:50:03;16.00;;;10.50;;
3066;SDS011;1544;48.834;9.194;2022-12-20T06:52:40;13.30;;;9.97;;
3066;SDS011;1544;48.834;9.194;2022-12-20T06:55:17;10.93;;;8.73;;
3066;SDS011;1544;48.834;9.194;2022-12-20T06:57:53;12.93;;;9.93;;
3066;SDS011;1544;48.834;9.194;2022-12-20T07:00:30;14.40;;;9.60;;
3066;SDS011;1544;48.834;9.194;2022-12-20T07:03:06;11.67;;;9.20;;
3066;SDS011;1544;48.834;9.194;2022-12-20T07:05:42;11.97;;;9.03;;
3066;SDS011;1544;48.834;9.194;2022-12-20T07:08:17;10.10;;;8.90;;
3066;SDS011;1544;48.834;9.194;2022-12-20T07:10:54;14.53;;;9.27;;
3066;SDS011;1544;48.834;9.194;2022-12-20T07:13:30;13.70;;;8.93;;
3066;SDS011;1544;48.834;9.194;2022-12-20T07:16:06;12.40;;;9.40;;
3066;SDS011;1544;48.834;9.194;2022-12-20T07:18:41;11.83;;;9.27;;
3066;SDS011;1544;48.834;9.194;2022-12-20T07:21:17;15.03;;;9.93;;
3066;SDS011;1544;48.834;9.194;2022-12-20T07:23:56;12.10;;;9.33;;
3066;SDS011;1544;48.834;9.194;2022-12-20T07:26:31;11.17;;;8.80;;
3066;SDS011;1544;48.834;9.194;2022-12-20T07:29:06;26.43;;;9.10;;
3066;SDS011;1544;48.834;9.194;2022-12-20T07:31:48;9.70;;;7.90;;
3066;SDS011;1544;48.834;9.194;2022-12-20T07:34:23;8.57;;;7.47;;
3066;SDS011;1544;48.834;9.194;2022-12-20T07:36:59;11.57;;;9.30;;
3066;SDS011;1544;48.834;9.194;2022-12-20T07:39:34;12.53;;;9.17;;
3066;SDS011;1544;48.834;9.194;2022-12-20T07:42:10;11.10;;;8.33;;
3066;SDS011;1544;48.834;9.194;2022-12-20T07:44:48;10.13;;;8.00;;
3066;SDS011;1544;48.834;9.194;2022-12-20T07:47:23;9.40;;;7.37;;
3066;SDS011;1544;48.834;9.194;2022-12-20T07:49:58;12.17;;;8.43;;
3066;SDS011;1544;48.834;9.194;2022-12-20T07:52:33;8.77;;;7.03;;
3066;SDS011;1544;48.834;9.194;2022-12-20T07:55:09;10.00;;;8.03;;
3066;SDS011;1544;48.834;9.194;2022-12-20T07:57:48;9.00;;;7.93;;
3066;SDS011;1544;48.834;9.194;2022-12-20T08:00:30;8.80;;;7.77;;
3066;SDS011;1544;48.834;9.194;2022-12-20T08:03:07;8.27;;;6.53;;
3066;SDS011;1544;48.834;9.194;2022-12-20T08:05:55;12.40;;;7.50;;
3066;SDS011;1544;48.834;9.194;2022-12-20T08:08:37;11.57;;;7.00;;
3066;SDS011;1544;48.834;9.194;2022-12-20T08:11:17;9.60;;;7.47;;
3066;SDS011;1544;48.834;9.194;2022-12-20T08:13:54;8.23;;;7.43;;
3066;SDS011;1544;48.834;9.194;2022-12-20T08:16:31;8.63;;;7.30;;
3066;SDS011;1544;48.834;9.194;2022-12-20T08:19:07;11.43;;;8.10;;
3066;SDS011;1544;48.834;9.194;2022-12-20T08:21:42;9.83;;;7.20;;
3066;SDS011;1544;48.834;9.194;2022-12-20T08:24:17;8.63;;;7.53;;
3066;SDS011;1544;48.834;9.194;2022-12-20T08:26:52;10.47;;;7.97;;
3066;SDS011;1544;48.834;9.194;2022-12-20T08:29:27;11.20;;;7.87;;
3066;SDS011;1544;48.834;9.194;2022-12-20T08:32:02;8.00;;;7.20;;
3066;SDS011;1544;48.834;9.194;2022-12-20T08:34:38;13.93;;;8.13;;
3066;SDS011;1544;48.834;9.194;2022-12-20T08:37:16;10.10;;;7.80;;
3066;SDS011;1544;48.834;9.194;2022-12-20T08:39:52;10.60;;;7.70;;
3066;SDS011;1544;48.834;9.194;2022-12-20T08:42:27;11.53;;;8.33;;
3066;SDS011;1544;48.834;9.194;2022-12-20T08:45:02;11.27;;;7.73;;
3066;SDS011;1544;48.834;9.194;2022-12-20T08:47:38;9.67;;;7.77;;
3066;SDS011;1544;48.834;9.194;2022-12-20T08:50:13;9.10;;;6.50;;
3066;SDS011;1544;48.834;9.194;2022-12-20T08:52:48;8.57;;;7.53;;
3066;SDS011;1544;48.834;9.194;2022-12-20T08:55:23;10.73;;;7.17;;
3066;SDS011;1544;48.834;9.194;2022-12-20T08:58:02;11.73;;;7.70;;
3066;SDS011;1544;48.834;9.194;2022-12-20T09:00:37;7.60;;;6.60;;
3066;SDS011;1544;48.834;9.194;2022-12-20T09:03:12;8.83;;;6.37;;
3066;SDS011;1544;48.834;9.194;2022-12-20T09:05:48;10.77;;;7.07;;
3066;SDS011;1544;48.834;9.194;2022-12-20T09:08:23;9.47;;;6.60;;
3066;SDS011;1544;48.834;9.194;2022-12-20T09:11:03;8.43;;;7.40;;
3066;SDS011;1544;48.834;9.194;2022-12-20T09:13:46;8.83;;;6.70;;
3066;SDS011;1544;48.834;9.194;2022-12-20T09:16:25;9.27;;;7.10;;
3066;SDS011;1544;48.834;9.194;2022-12-20T09:19:04;14.80;;;6.80;;
3066;SDS011;1544;48.834;9.194;2022-12-20T09:21:40;8.63;;;6.70;;
3066;SDS011;1544;48.834;9.194;2022-12-20T09:24:15;10.80;;;7.80;;
3066;SDS011;1544;48.834;9.194;2022-12-20T09:26:50;7.40;;;6.70;;
3066;SDS011;1544;48.834;9.194;2022-12-20T09:29:25;9.40;;;6.80;;
3066;SDS011;1544;48.834;9.194;2022-12-20T09:32:08;8.53;;;7.63;;
3066;SDS011;1544;48.834;9.194;2022-12-20T09:34:43;8.10;;;7.30;;
3066;SDS011;1544;48.834;9.194;2022-12-20T09:37:18;8.50;;;6.93;;
3066;SDS011;1544;48.834;9.194;2022-12-20T09:39:53;7.93;;;6.83;;
3066;SDS011;1544;48.834;9.194;2022-12-20T09:42:28;10.07;;;7.20;;
3066;SDS011;1544;48.834;9.194;2022-12-20T09:45:07;12.53;;;8.00;;
3066;SDS011;1544;48.834;9.194;2022-12-20T09:47:48;11.10;;;7.80;;
3066;SDS011;1544;48.834;9.194;2022-12-20T09:50:44;11.47;;;7.50;;
3066;SDS011;1544;48.834;9.194;2022-12-20T09:56:40;7.90;;;7.03;;
3066;SDS011;1544;48.834;9.194;2022-12-20T09:59:20;9.20;;;7.90;;
3066;SDS011;1544;48.834;9.194;2022-12-20T10:01:55;8.93;;;8.03;;
3066;SDS011;1544;48.834;9.194;2022-12-20T10:04:51;8.70;;;7.60;;
3066;SDS011;1544;48.834;9.194;2022-12-20T10:10:52;11.80;;;7.70;;
3066;SDS011;1544;48.834;9.194;2022-12-20T10:13:46;9.40;;;7.10;;
3066;SDS011;1544;48.834;9.194;2022-12-20T10:16:33;10.07;;;8.37;;
3066;SDS011;1544;48.834;9.194;2022-12-20T10:19:22;8.50;;;7.70;;
3066;SDS011;1544;48.834;9.194;2022-12-20T10:25:01;9.40;;;6.60;;
3066;SDS011;1544;48.834;9.194;2022-12-20T10:27:52;8.37;;;7.40;;
3066;SDS011;1544;48.834;9.194;2022-12-20T10:30:31;11.57;;;8.27;;
3066;SDS011;1544;48.834;9.194;2022-12-20T10:33:19;10.17;;;8.90;;
3066;SDS011;1544;48.834;9.194;2022-12-20T10:36:16;12.90;;;7.90;;
3066;SDS011;1544;48.834;9.194;2022-12-20T10:38:54;9.83;;;7.73;;
3066;SDS011;1544;48.834;9.194;2022-12-20T10:44:25;9.90;;;8.27;;
3066;SDS011;1544;48.834;9.194;2022-12-20T10:47:03;9.60;;;7.93;;
3066;SDS011;1544;48.834;9.194;2022-12-20T10:50:20;7.93;;;7.00;;
3066;SDS011;1544;48.834;9.194;2022-12-20T10:55:45;9.53;;;7.70;;
3066;SDS011;1544;48.834;9.194;2022-12-20T11:01:13;11.50;;;7.77;;
3066;SDS011;1544;48.834;9.194;2022-12-20T11:03:56;8.27;;;7.27;;
3066;SDS011;1544;48.834;9.194;2022-12-20T11:09:12;9.37;;;7.53;;
3066;SDS011;1544;48.834;9.194;2022-12-20T11:12:01;9.80;;;7.00;;
3066;SDS011;1544;48.834;9.194;2022-12-20T11:14:48;9.53;;;6.90;;
3066;SDS011;1544;48.834;9.194;2022-12-20T11:17:27;8.87;;;6.50;;
3066;SDS011;1544;48.834;9.194;2022-12-20T11:20:19;7.37;;;6.63;;
3066;SDS011;1544;48.834;9.194;2022-12-20T11:26:00;8.00;;;6.53;;
3066;SDS011;1544;48.834;9.194;2022-12-20T11:32:41;8.23;;;6.83;;
3066;SDS011;1544;48.834;9.194;2022-12-20T11:38:26;8.30;;;6.93;;
3066;SDS011;1544;48.834;9.194;2022-12-20T11:50:44;10.27;;;6.40;;
3066;SDS011;1544;48.834;9.194;2022-12-20T11:53:51;7.47;;;6.70;;
3066;SDS011;1544;48.834;9.194;2022-12-20T11:56:39;7.07;;;5.80;;
3066;SDS011;1544;48.834;9.194;2022-12-20T11:59:25;7.90;;;6.50;;
3066;SDS011;1544;48.834;9.194;2022-12-20T12:02:58;9.70;;;6.57;;
3066;SDS011;1544;48.834;9.194;2022-12-20T12:05:59;7.37;;;6.60;;
3066;SDS011;1544;48.834;9.194;2022-12-20T12:12:02;7.80;;;6.83;;
3066;SDS011;1544;48.834;9.194;2022-12-20T12:18:13;7.90;;;6.63;;
3066;SDS011;1544;48.834;9.194;2022-12-20T12:26:53;8.63;;;7.73;;
3066;SDS011;1544;48.834;9.194;2022-12-20T12:29:28;11.57;;;6.77;;
3066;SDS011;1544;48.834;9.194;2022-12-20T12:32:27;9.10;;;6.50;;
3066;SDS011;1544;48.834;9.194;2022-12-20T12:43:48;6.97;;;6.37;;
3066;SDS011;1544;48.834;9.194;2022-12-20T12:46:29;8.67;;;5.90;;
3066;SDS011;1544;48.834;9.194;2022-12-20T12:49:10;6.70;;;6.00;;
3066;SDS011;1544;48.834;9.194;2022-12-20T12:51:53;7.60;;;6.80;;
3066;SDS011;1544;48.834;9.194;2022-12-20T12:54:35;7.27;;;5.77;;
3066;SDS011;1544;48.834;9.194;2022-12-20T12:57:14;9.30;;;6.37;;
3066;SDS011;1544;48.834;9.194;2022-12-20T12:59:51;7.33;;;6.53;;
3066;SDS011;1544;48.834;9.194;2022-12-20T13:02:31;6.80;;;6.10;;
3066;SDS011;1544;48.834;9.194;2022-12-20T13:07:43;7.53;;;6.83;;
3066;SDS011;1544;48.834;9.194;2022-12-20T13:12:59;7.40;;;6.70;;
3066;SDS011;1544;48.834;9.194;2022-12-20T13:24:16;6.67;;;6.00;;
3066;SDS011;1544;48.834;9.194;2022-12-20T13:40:53;8.13;;;5.67;;
3066;SDS011;1544;48.834;9.194;2022-12-20T13:43:34;7.70;;;7.00;;
3066;SDS011;1544;48.834;9.194;2022-12-20T13:46:36;7.70;;;5.83;;
3066;SDS011;1544;48.834;9.194;2022-12-20T13:52:05;8.47;;;6.33;;
3066;SDS011;1544;48.834;9.194;2022-12-20T13:54:47;8.17;;;6.23;;
3066;SDS011;1544;48.834;9.194;2022-12-20T13:57:30;7.30;;;6.30;;
3066;SDS011;1544;48.834;9.194;2022-12-20T14:00:18;6.70;;;5.80;;
3066;SDS011;1544;48.834;9.194;2022-12-20T14:02:59;6.80;;;5.97;;
3066;SDS011;1544;48.834;9.194;2022-12-20T14:05:36;7.60;;;5.70;;
3066;SDS011;1544;48.834;9.194;2022-12-20T14:08:13;7.07;;;5.63;;
3066;SDS011;1544;48.834;9.194;2022-12-20T14:11:06;6.93;;;6.10;;
3066;SDS011;1544;48.834;9.194;2022-12-20T14:16:33;8.03;;;6.33;;
3066;SDS011;1544;48.834;9.194;2022-12-20T14:19:12;7.90;;;6.20;;
3066;SDS011;1544;48.834;9.194;2022-12-20T14:21:48;6.40;;;5.67;;
3066;SDS011;1544;48.834;9.194;2022-12-20T14:24:23;9.97;;;6.87;;
3066;SDS011;1544;48.834;9.194;2022-12-20T14:26:58;10.97;;;7.20;;
3066;SDS011;1544;48.834;9.194;2022-12-20T14:29:34;10.13;;;6.97;;
3066;SDS011;1544;48.834;9.194;2022-12-20T14:32:16;11.30;;;8.20;;
3066;SDS011;1544;48.834;9.194;2022-12-20T14:34:52;7.33;;;6.73;;
3066;SDS011;1544;48.834;9.194;2022-12-20T14:37:32;9.87;;;6.33;;
3066;SDS011;1544;48.834;9.194;2022-12-20T14:42:44;8.50;;;7.60;;
3066;SDS011;1544;48.834;9.194;2022-12-20T14:45:22;8.90;;;7.10;;
3066;SDS011;1544;48.834;9.194;2022-12-20T14:48:02;8.43;;;7.43;;
3066;SDS011;1544;48.834;9.194;2022-12-20T14:50:44;10.77;;;7.03;;
3066;SDS011;1544;48.834;9.194;2022-12-20T14:53:28;7.63;;;6.83;;
3066;SDS011;1544;48.834;9.194;2022-12-20T14:56:03;8.90;;;7.30;;
3066;SDS011;1544;48.834;9.194;2022-12-20T14:58:38;7.87;;;6.33;;
3066;SDS011;1544;48.834;9.194;2022-12-20T15:03:55;8.60;;;6.93;;
3066;SDS011;1544;48.834;9.194;2022-12-20T15:06:36;7.80;;;6.60;;
3066;SDS011;1544;48.834;9.194;2022-12-20T15:09:15;9.50;;;6.90;;
3066;SDS011;1544;48.834;9.194;2022-12-20T15:11:50;8.47;;;7.67;;
3066;SDS011;1544;48.834;9.194;2022-12-20T15:17:14;10.17;;;7.93;;
3066;SDS011;1544;48.834;9.194;2022-12-20T15:19:49;7.93;;;7.13;;
3066;SDS011;1544;48.834;9.194;2022-12-20T15:22:24;8.87;;;7.93;;
3066;SDS011;1544;48.834;9.194;2022-12-20T15:24:59;8.60;;;7.53;;
3066;SDS011;1544;48.834;9.194;2022-12-20T15:27:34;8.27;;;7.50;;
3066;SDS011;1544;48.834;9.194;2022-12-20T15:30:12;9.77;;;6.93;;
3066;SDS011;1544;48.834;9.194;2022-12-20T15:32:47;8.70;;;7.20;;
3066;SDS011;1544;48.834;9.194;2022-12-20T15:35:29;8.07;;;7.27;;
3066;SDS011;1544;48.834;9.194;2022-12-20T15:38:04;10.70;;;7.90;;
3066;SDS011;1544;48.834;9.194;2022-12-20T15:40:39;10.70;;;7.83;;
3066;SDS011;1544;48.834;9.194;2022-12-20T15:43:17;10.10;;;7.50;;
3066;SDS011;1544;48.834;9.194;2022-12-20T15:45:54;7.27;;;6.57;;
3066;SDS011;1544;48.834;9.194;2022-12-20T15:48:29;7.90;;;7.10;;
3066;SDS011;1544;48.834;9.194;2022-12-20T15:51:10;9.50;;;7.30;;
3066;SDS011;1544;48.834;9.194;2022-12-20T15:54:12;11.27;;;8.20;;
3066;SDS011;1544;48.834;9.194;2022-12-20T15:57:02;9.53;;;8.17;;
3066;SDS011;1544;48.834;9.194;2022-12-20T15:59:42;10.90;;;7.80;;
3066;SDS011;1544;48.834;9.194;2022-12-20T16:02:44;10.80;;;8.83;;
3066;SDS011;1544;48.834;9.194;2022-12-20T16:05:23;11.33;;;8.13;;
3066;SDS011;1544;48.834;9.194;2022-12-20T16:07:58;11.17;;;8.10;;
3066;SDS011;1544;48.834;9.194;2022-12-20T16:10:33;10.20;;;8.50;;
3066;SDS011;1544;48.834;9.194;2022-12-20T16:13:12;12.20;;;9.53;;
3066;SDS011;1544;48.834;9.194;2022-12-20T16:15:54;12.80;;;9.60;;
3066;SDS011;1544;48.834;9.194;2022-12-20T16:18:29;10.43;;;8.53;;
3066;SDS011;1544;48.834;9.194;2022-12-20T16:21:12;10.50;;;9.23;;
3066;SDS011;1544;48.834;9.194;2022-12-20T16:23:56;10.60;;;9.10;;
3066;SDS011;1544;48.834;9.194;2022-12-20T16:26:31;12.27;;;8.30;;
3066;SDS011;1544;48.834;9.194;2022-12-20T16:29:06;9.60;;;8.60;;
3066;SDS011;1544;48.834;9.194;2022-12-20T16:31:41;9.03;;;8.07;;
3066;SDS011;1544;48.834;9.194;2022-12-20T16:34:17;9.57;;;8.67;;
3066;SDS011;1544;48.834;9.194;2022-12-20T16:36:52;11.67;;;8.63;;
3066;SDS011;1544;48.834;9.194;2022-12-20T16:39:27;11.50;;;9.00;;
3066;SDS011;1544;48.834;9.194;2022-12-20T16:42:02;10.73;;;9.00;;
3066;SDS011;1544;48.834;9.194;2022-12-20T16:44:39;10.00;;;8.30;;
3066;SDS011;1544;48.834;9.194;2022-12-20T16:47:16;9.13;;;8.10;;
3066;SDS011;1544;48.834;9.194;2022-12-20T16:49:51;11.20;;;8.40;;
3066;SDS011;1544;48.834;9.194;2022-12-20T16:52:27;9.07;;;8.27;;
3066;SDS011;1544;48.834;9.194;2022-12-20T16:55:02;9.77;;;8.70;;
3066;SDS011;1544;48.834;9.194;2022-12-20T16:57:39;12.57;;;9.60;;
3066;SDS011;1544;48.834;9.194;2022-12-20T17:00:18;10.60;;;9.50;;
3066;SDS011;1544;48.834;9.194;2022-12-20T17:02:57;9.17;;;8.13;;
3066;SDS011;1544;48.834;9.194;2022-12-20T17:05:33;11.70;;;9.80;;
3066;SDS011;1544;48.834;9.194;2022-12-20T17:08:10;14.73;;;10.07;;
3066;SDS011;1544;48.834;9.194;2022-12-20T17:11:07;10.93;;;9.83;;
3066;SDS011;1544;48.834;9.194;2022-12-20T17:13:54;11.43;;;10.23;;
3066;SDS011;1544;48.834;9.194;2022-12-20T17:16:30;19.63;;;10.10;;
3066;SDS011;1544;48.834;9.194;2022-12-20T17:19:05;12.03;;;10.13;;
3066;SDS011;1544;48.834;9.194;2022-12-20T17:21:41;13.80;;;10.03;;
3066;SDS011;1544;48.834;9.194;2022-12-20T17:24:38;13.93;;;10.30;;
3066;SDS011;1544;48.834;9.194;2022-12-20T17:27:13;12.30;;;9.70;;
3066;SDS011;1544;48.834;9.194;2022-12-20T17:29:48;10.37;;;9.37;;
3066;SDS011;1544;48.834;9.194;2022-12-20T17:32:25;10.70;;;9.13;;
3066;SDS011;1544;48.834;9.194;2022-12-20T17:34:59;12.10;;;10.30;;
3066;SDS011;1544;48.834;9.194;2022-12-20T17:37:35;11.57;;;10.30;;
3066;SDS011;1544;48.834;9.194;2022-12-20T17:40:11;12.80;;;10.20;;
3066;SDS011;1544;48.834;9.194;2022-12-20T17:42:48;11.47;;;10.27;;
3066;SDS011;1544;48.834;9.194;2022-12-20T17:45:25;11.77;;;10.13;;
3066;SDS011;1544;48.834;9.194;2022-12-20T17:48:06;12.50;;;10.03;;
3066;SDS011;1544;48.834;9.194;2022-12-20T17:50:41;11.30;;;9.03;;
3066;SDS011;1544;48.834;9.194;2022-12-20T17:53:16;12.13;;;10.17;;
3066;SDS011;1544;48.834;9.194;2022-12-20T17:55:51;14.97;;;11.23;;
3066;SDS011;1544;48.834;9.194;2022-12-20T17:58:26;18.00;;;11.00;;
3066;SDS011;1544;48.834;9.194;2022-12-20T18:01:01;15.37;;;10.50;;
3066;SDS011;1544;48.834;9.194;2022-12-20T18:03:36;11.50;;;9.70;;
3066;SDS011;1544;48.834;9.194;2022-12-20T18:06:32;13.67;;;9.47;;
3066;SDS011;1544;48.834;9.194;2022-12-20T18:09:13;11.30;;;8.90;;
3066;SDS011;1544;48.834;9.194;2022-12-20T18:11:54;14.33;;;10.07;;
3066;SDS011;1544;48.834;9.194;2022-12-20T18:14:29;12.57;;;8.70;;
3066;SDS011;1544;48.834;9.194;2022-12-20T18:17:04;9.20;;;8.30;;